createdAt,value
2019-05-02T00:00:05.403Z,86
2019-05-02T00:01:05.415Z,86
2019-05-02T00:02:05.471Z,85
2019-05-02T00:03:05.761Z,86
2019-05-02T00:04:05.577Z,85
2019-05-02T00:05:05.638Z,85
2019-05-02T00:06:07.305Z,85
2019-05-02T00:07:05.749Z,85
2019-05-02T00:08:05.798Z,85
2019-05-02T00:09:09.062Z,85
2019-05-02T00:10:05.895Z,85
2019-05-02T00:11:05.958Z,85
2019-05-02T00:12:06.036Z,85
2019-05-02T00:13:06.067Z,85
2019-05-02T00:14:06.117Z,85
2019-05-02T00:15:06.168Z,85
2019-05-02T00:16:08.995Z,85
2019-05-02T00:17:06.238Z,85
2019-05-02T00:18:06.252Z,86
2019-05-02T00:19:08.969Z,85
2019-05-02T00:20:06.307Z,85
2019-05-02T00:21:06.299Z,85
2019-05-02T00:22:06.358Z,85
2019-05-02T00:23:06.429Z,86
2019-05-02T00:24:06.452Z,86
2019-05-02T00:25:06.480Z,86
2019-05-02T00:26:06.530Z,86
2019-05-02T00:27:06.579Z,86
2019-05-02T00:28:07.669Z,86
2019-05-02T00:29:06.779Z,86
2019-05-02T00:30:06.754Z,86
2019-05-02T00:31:07.342Z,86
2019-05-02T00:32:06.798Z,85
2019-05-02T00:33:06.844Z,86
2019-05-02T00:34:06.879Z,86
2019-05-02T00:35:06.876Z,87
2019-05-02T00:36:06.949Z,87
2019-05-02T00:37:06.927Z,87
2019-05-02T00:38:06.950Z,87
2019-05-02T00:39:09.465Z,87
2019-05-02T00:40:07.019Z,87
2019-05-02T00:41:07.096Z,87
2019-05-02T00:42:12.608Z,87
2019-05-02T00:43:07.088Z,87
2019-05-02T00:44:10.918Z,87
2019-05-02T00:45:07.156Z,87
2019-05-02T00:46:07.188Z,87
2019-05-02T00:47:10.800Z,87
2019-05-02T00:48:07.290Z,87
2019-05-02T00:49:07.334Z,86
2019-05-02T00:50:11.141Z,86
2019-05-02T00:51:07.439Z,87
2019-05-02T00:52:07.455Z,87
2019-05-02T00:53:11.947Z,87
2019-05-02T00:54:07.543Z,86
2019-05-02T00:55:10.106Z,86
2019-05-02T00:56:08.998Z,86
2019-05-02T00:57:07.597Z,86
2019-05-02T00:58:07.652Z,86
2019-05-02T00:59:08.792Z,86
2019-05-02T01:00:07.671Z,86
2019-05-02T01:01:07.731Z,86
2019-05-02T01:02:07.732Z,86
2019-05-02T01:03:10.984Z,86
2019-05-02T01:04:07.782Z,86
2019-05-02T01:05:07.825Z,86
2019-05-02T01:06:13.567Z,86
2019-05-02T01:07:07.870Z,86
2019-05-02T01:08:07.882Z,86
2019-05-02T01:09:10.859Z,86
2019-05-02T01:10:07.930Z,86
2019-05-02T01:11:07.995Z,86
2019-05-02T01:12:10.175Z,86
2019-05-02T01:13:07.949Z,86
2019-05-02T01:14:08.003Z,86
2019-05-02T01:15:08.503Z,86
2019-05-02T01:16:08.029Z,86
2019-05-02T01:17:08.045Z,86
2019-05-02T01:18:08.098Z,86
2019-05-02T01:19:12.054Z,86
2019-05-02T01:20:08.095Z,86
2019-05-02T01:21:08.199Z,86
2019-05-02T01:22:10.397Z,86
2019-05-02T01:23:08.135Z,86
2019-05-02T01:24:08.173Z,86
2019-05-02T01:25:14.925Z,86
2019-05-02T01:26:08.175Z,86
2019-05-02T01:27:08.169Z,86
2019-05-02T01:28:12.446Z,86
2019-05-02T01:29:08.218Z,86
2019-05-02T01:30:08.220Z,86
2019-05-02T01:31:08.229Z,86
2019-05-02T01:32:08.230Z,86
2019-05-02T01:33:08.234Z,86
2019-05-02T01:34:08.225Z,86
2019-05-02T01:35:08.259Z,85
2019-05-02T01:36:08.301Z,85
2019-05-02T01:38:08.244Z,85
2019-05-02T01:39:10.501Z,85
2019-05-02T01:40:08.311Z,85
2019-05-02T01:41:08.375Z,85
2019-05-02T01:42:08.427Z,85
2019-05-02T01:43:08.439Z,85
2019-05-02T01:44:08.465Z,86
2019-05-02T01:45:11.122Z,85
2019-05-02T01:46:08.498Z,85
2019-05-02T01:47:08.584Z,85
2019-05-02T01:48:09.677Z,85
2019-05-02T01:49:08.665Z,85
2019-05-02T01:50:08.758Z,85
2019-05-02T01:51:09.902Z,85
2019-05-02T01:52:08.807Z,85
2019-05-02T01:53:08.886Z,85
2019-05-02T01:54:09.911Z,85
2019-05-02T01:55:08.935Z,85
2019-05-02T01:56:08.963Z,85
2019-05-02T01:57:10.002Z,85
2019-05-02T01:58:08.982Z,85
2019-05-02T01:59:09.035Z,85
2019-05-02T02:00:11.082Z,85
2019-05-02T02:01:09.167Z,85
2019-05-02T02:02:09.238Z,85
2019-05-02T02:03:10.348Z,84
2019-05-02T02:04:09.299Z,84
2019-05-02T02:05:09.291Z,84
2019-05-02T02:06:10.055Z,84
2019-05-02T02:07:09.415Z,84
2019-05-02T02:08:09.437Z,84
2019-05-02T02:09:09.844Z,84
2019-05-02T02:10:09.496Z,84
2019-05-02T02:11:09.550Z,84
2019-05-02T02:12:11.252Z,85
2019-05-02T02:13:09.598Z,84
2019-05-02T02:14:12.758Z,84
2019-05-02T02:15:09.674Z,84
2019-05-02T02:16:09.741Z,84
2019-05-02T02:17:09.971Z,84
2019-05-02T02:18:09.804Z,84
2019-05-02T02:19:09.853Z,84
2019-05-02T02:20:14.008Z,84
2019-05-02T02:21:09.933Z,84
2019-05-02T02:22:09.980Z,84
2019-05-02T02:23:14.005Z,83
2019-05-02T02:24:10.085Z,84
2019-05-02T02:25:10.062Z,84
2019-05-02T02:26:11.873Z,84
2019-05-02T02:27:10.163Z,83
2019-05-02T02:28:10.208Z,83
2019-05-02T02:29:10.237Z,84
2019-05-02T02:30:10.289Z,84
2019-05-02T02:31:10.301Z,84
2019-05-02T02:32:10.365Z,83
2019-05-02T02:33:10.404Z,83
2019-05-02T02:34:10.478Z,83
2019-05-02T02:35:12.531Z,83
2019-05-02T02:36:10.512Z,83
2019-05-02T02:37:12.327Z,83
2019-05-02T02:38:10.583Z,83
2019-05-02T02:39:13.971Z,83
2019-05-02T02:40:10.642Z,83
2019-05-02T02:41:12.892Z,83
2019-05-02T02:42:10.826Z,83
2019-05-02T02:43:31.566Z,84
2019-05-02T02:44:10.888Z,84
2019-05-02T02:45:12.770Z,84
2019-05-02T02:46:10.795Z,83
2019-05-02T02:47:11.800Z,84
2019-05-02T02:48:10.884Z,84
2019-05-02T02:49:13.835Z,84
2019-05-02T02:50:10.872Z,84
2019-05-02T02:51:21.957Z,84
2019-05-02T02:52:10.937Z,84
2019-05-02T02:53:10.963Z,84
2019-05-02T02:54:11.007Z,84
2019-05-02T02:55:15.992Z,84
2019-05-02T02:56:11.026Z,84
2019-05-02T02:57:19.936Z,84
2019-05-02T02:58:11.074Z,84
2019-05-02T02:59:11.129Z,84
2019-05-02T03:00:11.482Z,84
2019-05-02T03:01:11.142Z,84
2019-05-02T03:02:12.073Z,84
2019-05-02T03:03:11.168Z,84
2019-05-02T03:04:12.139Z,84
2019-05-02T03:05:11.202Z,84
2019-05-02T03:06:11.230Z,85
2019-05-02T03:07:11.249Z,85
2019-05-02T03:08:11.252Z,85
2019-05-02T03:09:11.282Z,85
2019-05-02T03:10:11.293Z,85
2019-05-02T03:11:11.326Z,85
2019-05-02T03:12:11.311Z,84
2019-05-02T03:13:14.873Z,85
2019-05-02T03:14:11.349Z,85
2019-05-02T03:15:11.386Z,84
2019-05-02T03:16:11.403Z,84
2019-05-02T03:17:11.409Z,84
2019-05-02T03:18:11.414Z,84
2019-05-02T03:19:14.517Z,84
2019-05-02T03:20:11.420Z,84
2019-05-02T03:21:13.160Z,84
2019-05-02T03:22:11.444Z,84
2019-05-02T03:23:14.963Z,84
2019-05-02T03:24:11.443Z,84
2019-05-02T03:25:11.447Z,83
2019-05-02T03:26:14.732Z,83
2019-05-02T03:27:11.466Z,83
2019-05-02T03:28:17.232Z,83
2019-05-02T03:29:11.481Z,83
2019-05-02T03:30:28.709Z,83
2019-05-02T03:31:23.362Z,83
2019-05-02T03:32:15.321Z,83
2019-05-02T03:33:12.443Z,83
2019-05-02T03:34:11.647Z,83
2019-05-02T03:35:17.768Z,83
2019-05-02T03:36:25.577Z,83
2019-05-02T03:37:13.812Z,83
2019-05-02T03:38:11.836Z,82
2019-05-02T03:39:14.544Z,82
2019-05-02T03:40:11.956Z,82
2019-05-02T03:41:13.054Z,82
2019-05-02T03:42:11.972Z,82
2019-05-02T03:43:12.033Z,82
2019-05-02T03:44:24.483Z,82
2019-05-02T03:45:12.157Z,82
2019-05-02T03:46:13.391Z,82
2019-05-02T03:47:12.256Z,83
2019-05-02T03:48:18.062Z,83
2019-05-02T03:49:12.326Z,83
2019-05-02T03:50:12.468Z,82
2019-05-02T03:51:20.869Z,82
2019-05-02T03:52:12.489Z,81
2019-05-02T03:53:17.489Z,82
2019-05-02T03:54:12.615Z,82
2019-05-02T03:55:12.647Z,82
2019-05-02T03:56:13.988Z,82
2019-05-02T03:57:12.782Z,82
2019-05-02T03:58:13.960Z,82
2019-05-02T03:59:12.874Z,82
2019-05-02T04:00:20.673Z,82
2019-05-02T04:01:12.967Z,82
2019-05-02T04:02:13.866Z,82
2019-05-02T04:03:12.991Z,82
2019-05-02T04:04:14.011Z,82
2019-05-02T04:05:13.049Z,82
2019-05-02T04:06:13.639Z,82
2019-05-02T04:07:13.109Z,82
2019-05-02T04:08:19.394Z,82
2019-05-02T04:09:13.192Z,82
2019-05-02T04:10:19.275Z,82
2019-05-02T04:11:13.309Z,82
2019-05-02T04:12:18.504Z,83
2019-05-02T04:13:13.414Z,83
2019-05-02T04:14:15.867Z,82
2019-05-02T04:15:13.507Z,83
2019-05-02T04:16:15.223Z,83
2019-05-02T04:17:13.567Z,83
2019-05-02T04:18:15.154Z,83
2019-05-02T04:19:13.673Z,83
2019-05-02T04:20:13.741Z,84
2019-05-02T04:21:13.738Z,84
2019-05-02T04:22:13.790Z,84
2019-05-02T04:23:13.841Z,84
2019-05-02T04:24:15.966Z,85
2019-05-02T04:25:13.885Z,85
2019-05-02T04:26:14.432Z,85
2019-05-02T04:27:13.962Z,85
2019-05-02T04:28:14.388Z,86
2019-05-02T04:29:13.982Z,86
2019-05-02T04:30:14.439Z,87
2019-05-02T04:31:14.027Z,87
2019-05-02T04:32:14.597Z,88
2019-05-02T04:33:14.093Z,88
2019-05-02T04:34:17.390Z,88
2019-05-02T04:35:14.179Z,88
2019-05-02T04:36:17.275Z,89
2019-05-02T04:37:14.234Z,89
2019-05-02T04:38:19.931Z,89
2019-05-02T04:39:18.257Z,89
2019-05-02T04:40:14.348Z,89
2019-05-02T04:41:18.604Z,88
2019-05-02T04:42:19.347Z,88
2019-05-02T04:43:14.358Z,87
2019-05-02T04:44:14.363Z,86
2019-05-02T04:45:26.130Z,86
2019-05-02T04:46:18.752Z,86
2019-05-02T04:47:18.282Z,86
2019-05-02T04:48:14.419Z,85
2019-05-02T04:49:19.838Z,85
2019-05-02T04:50:24.066Z,86
2019-05-02T04:51:17.360Z,86
2019-05-02T04:52:16.989Z,86
2019-05-02T04:53:14.483Z,85
2019-05-02T04:54:21.265Z,84
2019-05-02T04:55:22.869Z,83
2019-05-02T04:56:14.559Z,83
2019-05-02T04:57:18.413Z,82
2019-05-02T04:58:23.845Z,82
2019-05-02T04:59:19.716Z,82
2019-05-02T05:00:14.633Z,82
2019-05-02T05:01:14.693Z,81
2019-05-02T05:02:20.059Z,82
2019-05-02T05:03:17.258Z,82
2019-05-02T05:04:14.807Z,82
2019-05-02T05:05:17.114Z,82
2019-05-02T05:06:14.770Z,82
2019-05-02T05:07:14.782Z,83
2019-05-02T05:08:17.363Z,82
2019-05-02T05:09:15.157Z,81
2019-05-02T05:10:14.824Z,81
2019-05-02T05:11:18.961Z,80
2019-05-02T05:12:14.859Z,80
2019-05-02T05:13:17.279Z,78
2019-05-02T05:14:14.882Z,78
2019-05-02T05:15:33.222Z,77
2019-05-02T05:16:15.759Z,78
2019-05-02T05:17:17.870Z,79
2019-05-02T05:18:14.916Z,79
2019-05-02T05:19:14.934Z,79
2019-05-02T05:20:15.825Z,78
2019-05-02T05:21:14.938Z,78
2019-05-02T05:22:15.009Z,78
2019-05-02T05:23:16.388Z,78
2019-05-02T05:24:14.954Z,77
2019-05-02T05:25:17.519Z,77
2019-05-02T05:26:14.978Z,77
2019-05-02T05:27:18.746Z,77
2019-05-02T05:28:14.979Z,77
2019-05-02T05:29:19.174Z,77
2019-05-02T05:30:18.605Z,77
2019-05-02T05:31:16.319Z,75
2019-05-02T05:32:15.157Z,75
2019-05-02T05:33:15.221Z,75
2019-05-02T05:34:16.931Z,76
2019-05-02T05:35:17.529Z,76
2019-05-02T05:36:15.383Z,76
2019-05-02T05:37:17.221Z,76
2019-05-02T05:38:15.493Z,74
2019-05-02T05:39:17.174Z,74
2019-05-02T05:40:17.571Z,74
2019-05-02T05:41:19.133Z,74
2019-05-02T05:42:17.798Z,73
2019-05-02T05:43:18.391Z,73
2019-05-02T05:44:17.879Z,74
2019-05-02T05:45:17.359Z,74
2019-05-02T05:46:17.790Z,74
2019-05-02T05:47:17.495Z,74
2019-05-02T05:48:18.222Z,73
2019-05-02T05:49:18.263Z,74
2019-05-02T05:50:17.624Z,73
2019-05-02T05:51:16.886Z,74
2019-05-02T05:52:17.898Z,74
2019-05-02T05:53:17.031Z,74
2019-05-02T05:54:17.807Z,74
2019-05-02T05:55:18.115Z,74
2019-05-02T05:56:17.984Z,74
2019-05-02T05:57:17.301Z,74
2019-05-02T05:58:18.601Z,74
2019-05-02T05:59:17.470Z,74
2019-05-02T06:00:22.580Z,75
2019-05-02T06:01:17.631Z,75
2019-05-02T06:02:18.322Z,74
2019-05-02T06:03:17.865Z,72
2019-05-02T06:04:19.228Z,72
2019-05-02T06:05:17.609Z,72
2019-05-02T06:06:22.304Z,73
2019-05-02T06:07:17.574Z,73
2019-05-02T06:08:18.320Z,72
2019-05-02T06:09:16.720Z,73
2019-05-02T06:10:16.733Z,73
2019-05-02T06:11:19.931Z,73
2019-05-02T06:12:16.792Z,73
2019-05-02T06:13:16.802Z,73
2019-05-02T06:14:19.869Z,72
2019-05-02T06:15:16.877Z,71
2019-05-02T06:16:16.880Z,72
2019-05-02T06:17:16.892Z,72
2019-05-02T06:18:16.902Z,73
2019-05-02T06:19:17.775Z,73
2019-05-02T06:20:16.954Z,71
2019-05-02T06:21:17.242Z,70
2019-05-02T06:22:24.107Z,70
2019-05-02T06:23:17.089Z,69
2019-05-02T06:24:17.192Z,67
2019-05-02T06:25:17.269Z,68
2019-05-02T06:26:17.262Z,69
2019-05-02T06:27:20.722Z,69
2019-05-02T06:28:17.290Z,69
2019-05-02T06:29:18.429Z,69
2019-05-02T06:30:17.346Z,69
2019-05-02T06:31:17.432Z,68
2019-05-02T06:32:19.119Z,68
2019-05-02T06:33:17.446Z,66
2019-05-02T06:34:17.471Z,67
2019-05-02T06:35:21.067Z,66
2019-05-02T06:36:17.499Z,66
2019-05-02T06:37:17.538Z,65
2019-05-02T06:38:21.509Z,67
2019-05-02T06:39:17.611Z,65
2019-05-02T06:40:17.624Z,66
2019-05-02T06:41:20.892Z,67
2019-05-02T06:42:17.700Z,67
2019-05-02T06:43:17.700Z,66
2019-05-02T06:44:18.335Z,68
2019-05-02T06:45:17.762Z,66
2019-05-02T06:46:21.575Z,63
2019-05-02T06:47:17.797Z,63
2019-05-02T06:48:19.073Z,64
2019-05-02T06:49:17.852Z,64
2019-05-02T06:50:17.869Z,65
2019-05-02T06:51:20.753Z,63
2019-05-02T06:52:17.924Z,62
2019-05-02T06:53:17.925Z,63
2019-05-02T06:54:22.545Z,62
2019-05-02T06:55:17.956Z,61
2019-05-02T06:56:17.983Z,60
2019-05-02T06:57:18.983Z,60
2019-05-02T06:58:18.022Z,59
2019-05-02T06:59:20.125Z,59
2019-05-02T07:00:18.026Z,58
2019-05-02T07:01:21.101Z,59
2019-05-02T07:02:18.068Z,58
2019-05-02T07:03:18.057Z,56
2019-05-02T07:04:22.751Z,58
2019-05-02T07:05:18.098Z,58
2019-05-02T07:06:18.253Z,61
2019-05-02T07:07:18.117Z,59
2019-05-02T07:08:18.126Z,58
2019-05-02T07:09:18.258Z,58
2019-05-02T07:10:19.934Z,57
2019-05-02T07:11:18.132Z,59
2019-05-02T07:12:18.118Z,59
2019-05-02T07:13:18.178Z,58
2019-05-02T07:14:18.505Z,55
2019-05-02T07:15:18.185Z,55
2019-05-02T07:16:36.756Z,56
2019-05-02T07:17:18.171Z,54
2019-05-02T07:18:18.169Z,55
2019-05-02T07:19:21.576Z,55
2019-05-02T07:20:18.274Z,55
2019-05-02T07:21:23.051Z,54
2019-05-02T07:22:18.379Z,53
2019-05-02T07:23:18.511Z,53
2019-05-02T07:24:18.423Z,55
2019-05-02T07:25:18.450Z,53
2019-05-02T07:26:20.931Z,56
2019-05-02T07:27:18.547Z,55
2019-05-02T07:28:18.630Z,55
2019-05-02T07:29:21.765Z,56
2019-05-02T07:30:18.694Z,53
2019-05-02T07:31:18.762Z,53
2019-05-02T07:32:19.142Z,53
2019-05-02T07:33:18.806Z,54
2019-05-02T07:34:18.890Z,53
2019-05-02T07:35:23.927Z,51
2019-05-02T07:36:19.008Z,53
2019-05-02T07:37:18.971Z,55
2019-05-02T07:38:20.103Z,53
2019-05-02T07:39:19.059Z,55
2019-05-02T07:40:19.141Z,55
2019-05-02T07:41:19.124Z,52
2019-05-02T07:42:19.196Z,54
2019-05-02T07:43:21.236Z,52
2019-05-02T07:44:19.371Z,52
2019-05-02T07:45:19.299Z,53
2019-05-02T07:46:20.907Z,51
2019-05-02T07:47:19.371Z,52
2019-05-02T07:48:19.441Z,51
2019-05-02T07:49:20.773Z,52
2019-05-02T07:50:19.478Z,50
2019-05-02T07:51:21.224Z,50
2019-05-02T07:52:19.560Z,51
2019-05-02T07:53:19.626Z,50
2019-05-02T07:54:24.657Z,50
2019-05-02T07:55:19.693Z,52
2019-05-02T07:56:20.906Z,50
2019-05-02T07:57:19.805Z,49
2019-05-02T07:58:19.830Z,51
2019-05-02T07:59:23.257Z,51
2019-05-02T08:00:19.817Z,51
2019-05-02T08:01:19.887Z,49
2019-05-02T08:02:20.154Z,49
2019-05-02T08:03:19.940Z,47
2019-05-02T08:04:19.989Z,48
2019-05-02T08:05:21.460Z,49
2019-05-02T08:06:20.085Z,49
2019-05-02T08:07:21.064Z,50
2019-05-02T08:08:20.177Z,49
2019-05-02T08:09:20.198Z,48
2019-05-02T08:10:21.830Z,48
2019-05-02T08:11:20.291Z,48
2019-05-02T08:12:20.326Z,47
2019-05-02T08:13:20.359Z,47
2019-05-02T08:14:20.388Z,50
2019-05-02T08:15:20.449Z,49
2019-05-02T08:16:22.297Z,49
2019-05-02T08:17:20.503Z,51
2019-05-02T08:18:20.526Z,50
2019-05-02T08:19:23.385Z,49
2019-05-02T08:20:21.268Z,52
2019-05-02T08:21:20.609Z,53
2019-05-02T08:22:20.658Z,51
2019-05-02T08:23:25.692Z,48
2019-05-02T08:24:20.701Z,48
2019-05-02T08:25:20.765Z,48
2019-05-02T08:26:21.548Z,48
2019-05-02T08:27:22.953Z,47
2019-05-02T08:28:20.846Z,48
2019-05-02T08:29:23.231Z,48
2019-05-02T08:30:20.877Z,48
2019-05-02T08:31:21.102Z,49
2019-05-02T08:32:20.939Z,48
2019-05-02T08:33:20.954Z,47
2019-05-02T08:34:20.955Z,47
2019-05-02T08:35:20.969Z,47
2019-05-02T08:36:20.970Z,47
2019-05-02T08:37:21.013Z,48
2019-05-02T08:38:21.031Z,48
2019-05-02T08:39:25.377Z,49
2019-05-02T08:40:21.064Z,48
2019-05-02T08:41:21.420Z,47
2019-05-02T08:42:21.087Z,48
2019-05-02T08:43:21.151Z,49
2019-05-02T08:44:21.155Z,48
2019-05-02T08:45:21.189Z,47
2019-05-02T08:46:21.195Z,49
2019-05-02T08:47:23.733Z,48
2019-05-02T08:48:22.741Z,47
2019-05-02T08:49:21.289Z,47
2019-05-02T08:50:21.264Z,48
2019-05-02T08:51:21.268Z,47
2019-05-02T08:52:22.309Z,46
2019-05-02T08:53:22.230Z,46
2019-05-02T08:54:21.329Z,46
2019-05-02T08:55:21.347Z,44
2019-05-02T08:56:21.677Z,47
2019-05-02T08:57:23.691Z,47
2019-05-02T08:58:21.384Z,45
2019-05-02T08:59:24.365Z,45
2019-05-02T09:00:21.435Z,48
2019-05-02T09:01:33.920Z,43
2019-05-02T09:02:25.827Z,44
2019-05-02T09:03:21.459Z,45
2019-05-02T09:04:24.061Z,44
2019-05-02T09:05:21.501Z,45
2019-05-02T09:06:22.294Z,45
2019-05-02T09:07:21.628Z,46
2019-05-02T09:08:21.506Z,46
2019-05-02T09:09:22.679Z,46
2019-05-02T09:10:21.538Z,46
2019-05-02T09:11:21.531Z,46
2019-05-02T09:12:22.909Z,45
2019-05-02T09:13:24.075Z,44
2019-05-02T09:14:21.683Z,47
2019-05-02T09:15:22.289Z,46
2019-05-02T09:16:28.314Z,46
2019-05-02T09:17:32.839Z,45
2019-05-02T09:18:22.332Z,44
2019-05-02T09:19:26.233Z,42
2019-05-02T09:20:23.614Z,43
2019-05-02T09:21:21.999Z,45
2019-05-02T09:22:22.136Z,44
2019-05-02T09:23:22.773Z,45
2019-05-02T09:24:23.844Z,45
2019-05-02T09:25:22.808Z,44
2019-05-02T09:26:33.024Z,45
2019-05-02T09:27:22.401Z,45
2019-05-02T09:28:25.301Z,46
2019-05-02T09:29:22.315Z,45
2019-05-02T09:30:25.774Z,43
2019-05-02T09:31:22.602Z,45
2019-05-02T09:32:25.399Z,46
2019-05-02T09:33:22.609Z,44
2019-05-02T09:34:26.486Z,45
2019-05-02T09:35:23.033Z,44
2019-05-02T09:36:22.635Z,44
2019-05-02T09:37:22.770Z,42
2019-05-02T09:38:22.328Z,41
2019-05-02T09:39:22.650Z,41
2019-05-02T09:40:22.442Z,42
2019-05-02T09:41:26.778Z,44
2019-05-02T09:42:22.526Z,45
2019-05-02T09:43:22.895Z,46
2019-05-02T09:44:22.619Z,44
2019-05-02T09:45:22.884Z,43
2019-05-02T09:46:22.800Z,43
2019-05-02T09:47:27.203Z,42
2019-05-02T09:48:26.733Z,43
2019-05-02T09:49:22.873Z,42
2019-05-02T09:50:29.334Z,41
2019-05-02T09:51:22.959Z,42
2019-05-02T09:52:23.022Z,41
2019-05-02T09:53:25.416Z,42
2019-05-02T09:54:23.348Z,43
2019-05-02T09:55:23.145Z,42
2019-05-02T09:56:23.161Z,42
2019-05-02T09:57:23.226Z,43
2019-05-02T09:58:23.948Z,41
2019-05-02T09:59:29.415Z,40
2019-05-02T10:00:32.055Z,41
2019-05-02T10:01:23.351Z,43
2019-05-02T10:02:25.226Z,42
2019-05-02T10:03:23.444Z,41
2019-05-02T10:04:23.459Z,41
2019-05-02T10:05:23.514Z,43
2019-05-02T10:06:23.515Z,42
2019-05-02T10:07:23.554Z,44
2019-05-02T10:08:23.599Z,44
2019-05-02T10:09:27.069Z,42
2019-05-02T10:10:23.664Z,41
2019-05-02T10:11:25.970Z,41
2019-05-02T10:12:23.742Z,42
2019-05-02T10:13:23.758Z,42
2019-05-02T10:14:23.882Z,42
2019-05-02T10:15:23.770Z,41
2019-05-02T10:16:27.258Z,39
2019-05-02T10:17:23.842Z,39
2019-05-02T10:18:25.349Z,40
2019-05-02T10:19:25.978Z,40
2019-05-02T10:20:31.704Z,40
2019-05-02T10:21:23.992Z,42
2019-05-02T10:22:26.546Z,40
2019-05-02T10:23:24.069Z,42
2019-05-02T10:24:24.036Z,41
2019-05-02T10:25:24.068Z,40
2019-05-02T10:26:24.747Z,40
2019-05-02T10:27:24.144Z,39
2019-05-02T10:28:24.183Z,38
2019-05-02T10:29:28.207Z,39
2019-05-02T10:30:24.225Z,40
2019-05-02T10:31:27.457Z,41
2019-05-02T10:32:24.247Z,40
2019-05-02T10:33:27.850Z,40
2019-05-02T10:34:24.315Z,39
2019-05-02T10:35:27.571Z,42
2019-05-02T10:36:24.396Z,41
2019-05-02T10:37:24.386Z,39
2019-05-02T10:38:24.421Z,39
2019-05-02T10:39:28.334Z,41
2019-05-02T10:40:24.470Z,39
2019-05-02T10:41:24.495Z,37
2019-05-02T10:42:24.524Z,39
2019-05-02T10:43:24.562Z,40
2019-05-02T10:44:27.092Z,41
2019-05-02T10:45:24.586Z,40
2019-05-02T10:46:27.707Z,40
2019-05-02T10:47:24.646Z,39
2019-05-02T10:48:28.139Z,40
2019-05-02T10:49:24.690Z,41
2019-05-02T10:50:24.696Z,40
2019-05-02T10:51:26.137Z,39
2019-05-02T10:52:29.410Z,41
2019-05-02T10:53:24.913Z,41
2019-05-02T10:54:27.835Z,41
2019-05-02T10:55:26.090Z,39
2019-05-02T10:56:24.815Z,41
2019-05-02T10:57:24.847Z,40
2019-05-02T10:58:31.146Z,40
2019-05-02T10:59:24.872Z,39
2019-05-02T11:00:24.894Z,41
2019-05-02T11:01:24.900Z,43
2019-05-02T11:02:24.960Z,41
2019-05-02T11:03:24.939Z,41
2019-05-02T11:04:29.058Z,41
2019-05-02T11:05:26.516Z,40
2019-05-02T11:06:24.974Z,41
2019-05-02T11:07:26.438Z,42
2019-05-02T11:08:25.006Z,41
2019-05-02T11:09:26.319Z,41
2019-05-02T11:10:25.021Z,41
2019-05-02T11:11:25.033Z,41
2019-05-02T11:12:27.455Z,42
2019-05-02T11:13:25.097Z,40
2019-05-02T11:14:25.056Z,40
2019-05-02T11:15:26.765Z,42
2019-05-02T11:16:25.067Z,42
2019-05-02T11:17:25.097Z,42
2019-05-02T11:18:39.345Z,44
2019-05-02T11:19:25.059Z,44
2019-05-02T11:20:25.042Z,44
2019-05-02T11:21:25.135Z,43
2019-05-02T11:22:25.116Z,43
2019-05-02T11:23:25.204Z,44
2019-05-02T11:24:25.203Z,44
2019-05-02T11:25:25.275Z,43
2019-05-02T11:26:25.520Z,43
2019-05-02T11:27:25.336Z,41
2019-05-02T11:28:25.368Z,42
2019-05-02T11:29:25.437Z,42
2019-05-02T11:30:26.673Z,42
2019-05-02T11:31:25.522Z,42
2019-05-02T11:32:25.547Z,42
2019-05-02T11:33:25.604Z,42
2019-05-02T11:34:25.674Z,42
2019-05-02T11:35:25.734Z,40
2019-05-02T11:36:27.442Z,42
2019-05-02T11:37:25.849Z,42
2019-05-02T11:38:26.321Z,42
2019-05-02T11:39:32.726Z,42
2019-05-02T11:40:25.980Z,40
2019-05-02T11:41:26.070Z,41
2019-05-02T11:42:27.285Z,39
2019-05-02T11:43:26.176Z,40
2019-05-02T11:44:26.213Z,41
2019-05-02T11:45:26.282Z,39
2019-05-02T11:46:26.309Z,40
2019-05-02T11:47:26.731Z,39
2019-05-02T11:48:26.398Z,38
2019-05-02T11:49:26.476Z,38
2019-05-02T11:50:26.589Z,42
2019-05-02T11:51:26.597Z,41
2019-05-02T11:52:27.318Z,39
2019-05-02T11:53:29.305Z,39
2019-05-02T11:54:27.770Z,39
2019-05-02T11:55:28.937Z,39
2019-05-02T11:56:26.696Z,39
2019-05-02T11:57:28.372Z,38
2019-05-02T11:58:26.795Z,39
2019-05-02T11:59:27.762Z,39
2019-05-02T12:00:26.878Z,42
2019-05-02T12:01:35.302Z,41
2019-05-02T12:02:26.945Z,40
2019-05-02T12:03:28.075Z,41
2019-05-02T12:04:37.385Z,41
2019-05-02T12:05:31.619Z,39
2019-05-02T12:06:27.080Z,38
2019-05-02T12:07:27.089Z,38
2019-05-02T12:08:27.135Z,38
2019-05-02T12:09:27.173Z,38
2019-05-02T12:10:27.890Z,39
2019-05-02T12:11:27.285Z,40
2019-05-02T12:12:32.326Z,40
2019-05-02T12:13:27.326Z,38
2019-05-02T12:14:32.093Z,39
2019-05-02T12:15:27.413Z,38
2019-05-02T12:16:27.462Z,37
2019-05-02T12:17:27.509Z,37
2019-05-02T12:18:27.518Z,38
2019-05-02T12:19:27.554Z,37
2019-05-02T12:20:28.533Z,38
2019-05-02T12:21:27.624Z,37
2019-05-02T12:22:27.670Z,36
2019-05-02T12:23:27.703Z,38
2019-05-02T12:24:27.715Z,37
2019-05-02T12:25:27.750Z,36
2019-05-02T12:26:27.802Z,36
2019-05-02T12:27:27.823Z,35
2019-05-02T12:28:27.842Z,35
2019-05-02T12:29:27.876Z,36
2019-05-02T12:30:28.886Z,36
2019-05-02T12:31:27.936Z,37
2019-05-02T12:32:27.952Z,36
2019-05-02T12:33:27.934Z,36
2019-05-02T12:34:27.951Z,38
2019-05-02T12:35:27.990Z,37
2019-05-02T12:36:28.000Z,36
2019-05-02T12:37:28.022Z,38
2019-05-02T12:38:28.056Z,38
2019-05-02T12:39:28.062Z,38
2019-05-02T12:40:28.175Z,38
2019-05-02T12:41:28.083Z,37
2019-05-02T12:42:28.394Z,39
2019-05-02T12:43:28.102Z,39
2019-05-02T12:44:28.130Z,39
2019-05-02T12:45:28.128Z,40
2019-05-02T12:46:28.516Z,41
2019-05-02T12:47:28.169Z,41
2019-05-02T12:48:28.171Z,41
2019-05-02T12:49:28.286Z,41
2019-05-02T12:50:28.194Z,41
2019-05-02T12:51:28.230Z,43
2019-05-02T12:52:28.213Z,41
2019-05-02T12:53:28.215Z,41
2019-05-02T12:54:28.224Z,41
2019-05-02T12:55:28.236Z,40
2019-05-02T12:56:28.235Z,38
2019-05-02T12:57:28.254Z,40
2019-05-02T12:58:28.236Z,42
2019-05-02T12:59:28.261Z,40
2019-05-02T13:00:28.258Z,39
2019-05-02T13:01:28.279Z,40
2019-05-02T13:02:28.281Z,41
2019-05-02T13:03:28.268Z,42
2019-05-02T13:04:28.316Z,42
2019-05-02T13:05:28.391Z,44
2019-05-02T13:06:28.485Z,41
2019-05-02T13:07:28.499Z,41
2019-05-02T13:08:28.556Z,40
2019-05-02T13:09:28.559Z,40
2019-05-02T13:10:28.621Z,40
2019-05-02T13:11:28.636Z,40
2019-05-02T13:12:28.710Z,40
2019-05-02T13:13:28.797Z,40
2019-05-02T13:14:28.844Z,42
2019-05-02T13:15:28.865Z,40
2019-05-02T13:16:28.904Z,40
2019-05-02T13:17:29.440Z,40
2019-05-02T13:18:34.420Z,41
2019-05-02T13:19:37.885Z,39
2019-05-02T13:20:29.335Z,41
2019-05-02T13:21:39.939Z,40
2019-05-02T13:22:29.184Z,39
2019-05-02T13:23:33.722Z,38
2019-05-02T13:24:29.675Z,37
2019-05-02T13:25:32.679Z,37
2019-05-02T13:26:29.337Z,37
2019-05-02T13:27:31.534Z,37
2019-05-02T13:28:29.340Z,38
2019-05-02T13:29:29.406Z,38
2019-05-02T13:30:32.219Z,37
2019-05-02T13:31:29.505Z,36
2019-05-02T13:32:31.844Z,38
2019-05-02T13:33:32.366Z,37
2019-05-02T13:34:31.793Z,38
2019-05-02T13:35:31.694Z,37
2019-05-02T13:36:29.680Z,36
2019-05-02T13:37:31.579Z,36
2019-05-02T13:38:29.736Z,36
2019-05-02T13:39:29.775Z,37
2019-05-02T13:40:31.955Z,36
2019-05-02T13:41:31.660Z,36
2019-05-02T13:42:30.078Z,35
2019-05-02T13:43:30.141Z,35
2019-05-02T13:44:29.929Z,36
2019-05-02T13:45:30.058Z,35
2019-05-02T13:46:32.093Z,36
2019-05-02T13:47:30.065Z,35
2019-05-02T13:48:32.069Z,35
2019-05-02T13:49:30.125Z,35
2019-05-02T13:50:31.655Z,34
2019-05-02T13:51:32.027Z,36
2019-05-02T13:52:30.204Z,35
2019-05-02T13:53:31.909Z,35
2019-05-02T13:54:30.303Z,35
2019-05-02T13:55:31.734Z,37
2019-05-02T13:56:30.449Z,36
2019-05-02T13:57:34.653Z,37
2019-05-02T13:58:33.039Z,38
2019-05-02T13:59:30.474Z,36
2019-05-02T14:00:31.889Z,36
2019-05-02T14:01:31.628Z,34
2019-05-02T14:02:31.743Z,34
2019-05-02T14:03:32.409Z,35
2019-05-02T14:04:32.399Z,36
2019-05-02T14:05:31.737Z,37
2019-05-02T14:06:35.627Z,37
2019-05-02T14:07:32.604Z,35
2019-05-02T14:08:32.971Z,35
2019-05-02T14:09:32.320Z,35
2019-05-02T14:10:32.022Z,32
2019-05-02T14:11:31.697Z,33
2019-05-02T14:12:32.025Z,32
2019-05-02T14:13:31.582Z,32
2019-05-02T14:14:32.555Z,33
2019-05-02T14:15:32.381Z,32
2019-05-02T14:16:32.040Z,32